Aeroporto :
LOGIN :

Iscrizione | Disclaimer

   EN    FR    IT 

 










Sommario :    VFR   VFR Marginale   IFR   IFR Intensivo   IFR Molto Intensivo
Visibilità : 
Base nubi : 
>= 8 km
>= 3000ft
5 / 8 km
1000 / 3000 ft
1500m / 5 km
500 / 1000 ft
800 / 1500m
200 / 500 ft
< 800m
< 200 ft
Simboli :   Temporali  Nebbia  Neve Forte  Precipitazioni Forti  Vento > 20 kt
SIGMETs :   Varie  Temporali  Ghiacco  Turbolenza  Onda orograficha  Ceneri Vulcaniche






- Altitudine del aeroporto : 1411 ft
- Codice IATA : SZG


LOWS - Salzburg

ULTIMO METAR :
  • 090620Z 15003KT 120V190 3000 -SN FEW003 SCT007 BKN011 M01/M01 Q1003 RESN TEMPO SN BKN007

METARs OBSOLETI :
  • 090550Z 18003KT 2500 SN FEW003 SCT009 BKN015 M01/M01 Q1003 TEMPO BKN009
  • 090520Z 16004KT 3200 -SN FEW004 BKN018 M01/M01 Q1003 TEMPO SN BKN009
  • 090450Z 15004KT 4000 -SN FEW003 BKN011 M01/M01 Q1003 TEMPO SN BKN009
  • 090420Z AUTO 15003KT 100V190 3700 -SN FEW003 BKN012 M01/M01 Q1002 RESN
  • 090350Z AUTO 17004KT 140V210 2300 -SN FEW003 BKN011 M01/M01 Q1002 RESN

TAF TAF LOWS
Valido dal 09 a 06 ore il 10 a 06 ore UTC


090515Z 0906/1006 15005KT 7000 -SN SCT007 BKN015 TX02/0919Z TNM02/1006Z
TEMPO 0906/0915 28005KT 1000 SN FEW004 BKN007
PROB40
TEMPO 0907/0913 0700 SN BKN004
FM091500 31007KT 9999 SCT020 BKN030
TEMPO 0915/0920 4000 -SN BKN014
BECMG 0920/0923 15005KT SCT030 BKN080



MetMap, La meteo Aeronautica in un colpo d'occhio ! - Copyright ORBIFLY Dicembre 2007 - Disclaimer

ORBIFLY MET'MAP TEAM :

Programmazione e sviluppo : Alexandra Zaïnal
Concezione : Baudouin d'Aumeries
Aiuto per la programmazione : Marc-Olivier Méhu
Supporto tecnico e logistico : Manuel Goepfert
Aiuto per la traduzione : Arnaldo La Scala

Contatto : metmap@orbifly.com




FONTI E CREDITI :

   NOAA